^^
Datos históricos de la estación: Murcia-Puente Tocinos
Diario Informe para Octubre 16, 2021 Unidades:  Métrico    Ingés   Ambas
Diario Semanal Mensual Anual
  Máxima: Mínima: Promedio:
Temperatura: 27.2 °C 15.3 °C 20.6 °C
Punto de rocio: 16.4 °C 11.2 °C 13.5 °C
Humedad: 82% 38.1% 66%
Velocidad viento: 15.6km/h 2.3km/h 7.4km/h
Racha viento: 27.8km/h - -
Viento- - ESE
Presión: 1016.5 hPa 1013.6 hPa -
Precipitación: 0.0 mm    
 
 
Tabla de datos para Octubre 16, 2021
Hora Temperatura Punto de rocio Presión Viento Velocidad viento Racha viento Humedad Intensidad lluvia(por hora) Nubes
00:04 19.4 °C 14.4 °C 1016.1 hPa NE 4.7 km/h 7.4 km/h 73% 0.0 mm
00:09 19.4 °C 14.4 °C 1016.1 hPa NE 4.4 km/h 7.4 km/h 73% 0.0 mm
00:14 19.3 °C 14.3 °C 1016.1 hPa NE 3.9 km/h 5.6 km/h 73% 0.0 mm
00:19 19.3 °C 14.3 °C 1016.1 hPa ENE 3.5 km/h 7.4 km/h 73% 0.0 mm
00:24 19.2 °C 14.4 °C 1016.2 hPa Este 2.9 km/h 7.4 km/h 74% 0.0 mm
00:29 19.1 °C 14.4 °C 1016.2 hPa ESE 3.6 km/h 7.6 km/h 74% 0.0 mm
00:34 19.1 °C 14.3 °C 1016.2 hPa SE 4.7 km/h 7.4 km/h 74% 0.0 mm
00:39 19 °C 14.3 °C 1016.2 hPa SE 4.7 km/h 8.4 km/h 74% 0.0 mm
00:44 18.8 °C 14.1 °C 1016.2 hPa SSE 4.7 km/h 7.6 km/h 74% 0.0 mm
00:49 18.7 °C 14 °C 1016.2 hPa Sur 4.8 km/h 7.6 km/h 74.2% 0.0 mm
00:54 18.6 °C 14.1 °C 1016.2 hPa Sur 5 km/h 7.4 km/h 75% 0.0 mm
00:59 18.6 °C 14.2 °C 1016.0 hPa Sur 4.5 km/h 8.4 km/h 75.5% 0.0 mm
01:04 18.6 °C 14.3 °C 1016.0 hPa SO 3.9 km/h 7.6 km/h 76% 0.0 mm
01:09 18.7 °C 14.2 °C 1016.0 hPa SO 4.2 km/h 7.4 km/h 75% 0.0 mm
01:14 18.7 °C 14.2 °C 1016.0 hPa SSO 4.7 km/h 7.4 km/h 75% 0.0 mm
01:19 18.7 °C 14.1 °C 1016.0 hPa SSO 4.3 km/h 4.7 km/h 75% 0.0 mm
01:24 18.6 °C 14.1 °C 1016.0 hPa SSO 3.9 km/h 5 km/h 75% 0.0 mm
01:29 18.6 °C 14.1 °C 1016.0 hPa SSO 3.2 km/h 5.8 km/h 75% 0.0 mm
01:34 18.6 °C 14.3 °C 1016.0 hPa SSO 2.3 km/h 5.6 km/h 76% 0.0 mm
01:39 18.6 °C 14.3 °C 1016.0 hPa SSO 2.6 km/h 8.4 km/h 76% 0.0 mm
01:44 18.6 °C 14.2 °C 1015.9 hPa SSO 3.2 km/h 7.6 km/h 75.6% 0.0 mm
01:49 18.6 °C 14.1 °C 1015.9 hPa SSO 3.8 km/h 7.6 km/h 75% 0.0 mm
01:54 18.6 °C 14.2 °C 1015.9 hPa Sur 4.7 km/h 7.4 km/h 75.6% 0.0 mm
01:58 18.6 °C 14.3 °C 1015.9 hPa Sur 4.7 km/h 7.6 km/h 76% 0.0 mm
02:04 18.5 °C 14.2 °C 1015.9 hPa SSO 4.7 km/h 9.3 km/h 76% 0.0 mm
02:09 18.5 °C 14.2 °C 1015.9 hPa SSO 4.8 km/h 8.4 km/h 76% 0.0 mm
02:14 18.4 °C 14.1 °C 1015.9 hPa SSO 5 km/h 9.3 km/h 76% 0.0 mm
02:19 18.4 °C 14.1 °C 1015.9 hPa SO 5.3 km/h 14.8 km/h 76% 0.0 mm
02:24 18.4 °C 14.2 °C 1015.9 hPa SO 5.8 km/h 14.8 km/h 76.5% 0.0 mm
02:29 18.3 °C 14.3 °C 1015.6 hPa SO 6.8 km/h 13 km/h 77% 0.0 mm
02:34 18.3 °C 14.2 °C 1015.6 hPa OSO 8.4 km/h 13.7 km/h 77% 0.0 mm
02:39 18.2 °C 14.1 °C 1015.6 hPa SO 8 km/h 13.7 km/h 77% 0.0 mm
02:44 18.1 °C 14 °C 1015.5 hPa SO 7.6 km/h 11.9 km/h 77% 0.0 mm
02:49 18 °C 13.9 °C 1015.5 hPa OSO 7.6 km/h 13 km/h 77% 0.0 mm
02:54 17.8 °C 13.8 °C 1015.5 hPa SO 7.6 km/h 11.9 km/h 77% 0.0 mm
02:59 17.8 °C 13.7 °C 1015.4 hPa SO 7.6 km/h 11.9 km/h 77% 0.0 mm
03:04 17.7 °C 13.6 °C 1015.4 hPa SO 7.6 km/h 11.1 km/h 77% 0.0 mm
03:09 17.6 °C 13.7 °C 1015.4 hPa SO 7.3 km/h 10 km/h 77.6% 0.0 mm
03:14 17.6 °C 13.7 °C 1015.3 hPa SO 6.9 km/h 11.9 km/h 78% 0.0 mm
03:19 17.5 °C 13.7 °C 1015.3 hPa SO 6.9 km/h 10 km/h 78% 0.0 mm
03:24 17.4 °C 13.5 °C 1015.3 hPa SO 6.9 km/h 8.4 km/h 78% 0.0 mm
03:29 17.4 °C 13.5 °C 1015.3 hPa SO 6.1 km/h 8.4 km/h 78% 0.0 mm
03:34 17.4 °C 13.5 °C 1015.3 hPa SO 4.7 km/h 7.4 km/h 78% 0.0 mm
03:39 17.3 °C 13.4 °C 1015.3 hPa OSO 4.7 km/h 7.4 km/h 78% 0.0 mm
03:44 17.3 °C 13.4 °C 1015.2 hPa OSO 4.7 km/h 5.8 km/h 78% 0.0 mm
03:49 17.3 °C 13.5 °C 1015.2 hPa SO 4.3 km/h 7.4 km/h 78.4% 0.0 mm
03:54 17.3 °C 13.6 °C 1015.2 hPa Sur 3.9 km/h 7.6 km/h 79% 0.0 mm
03:59 17.3 °C 13.6 °C 1015.2 hPa SSE 4.3 km/h 7.6 km/h 79% 0.0 mm
04:04 17.2 °C 13.5 °C 1015.2 hPa Sur 5 km/h 9.5 km/h 79.1% 0.0 mm
04:09 17.1 °C 13.6 °C 1015.2 hPa SSO 5.6 km/h 11.1 km/h 80% 0.0 mm
04:14 17 °C 13.5 °C 1015.1 hPa SSO 6.4 km/h 11.1 km/h 80% 0.0 mm
04:19 16.9 °C 13.4 °C 1015.1 hPa SSO 6.9 km/h 11.9 km/h 80% 0.0 mm
04:24 16.9 °C 13.4 °C 1015.1 hPa SSO 7.6 km/h 10 km/h 80% 0.0 mm
04:29 16.9 °C 13.4 °C 1015.0 hPa SSO 7.6 km/h 11.1 km/h 80% 0.0 mm
04:34 16.9 °C 13.4 °C 1015.0 hPa SSO 7.6 km/h 13 km/h 80% 0.0 mm
04:39 16.9 °C 13.4 °C 1015.0 hPa SSO 7.9 km/h 13 km/h 80% 0.0 mm
04:44 16.9 °C 13.4 °C 1014.9 hPa SO 8.4 km/h 11.9 km/h 80% 0.0 mm
04:49 16.9 °C 13.4 °C 1014.9 hPa SO 8 km/h 11.1 km/h 80% 0.0 mm
04:54 16.9 °C 13.4 °C 1014.9 hPa SO 7.6 km/h 10 km/h 80% 0.0 mm
04:59 16.8 °C 13.4 °C 1014.8 hPa SO 7.3 km/h 13 km/h 80% 0.0 mm
05:04 16.8 °C 13.3 °C 1014.8 hPa SO 6.9 km/h 9.3 km/h 80% 0.0 mm
05:09 16.8 °C 13.3 °C 1014.8 hPa SO 6.7 km/h 11.1 km/h 80% 0.0 mm
05:14 16.8 °C 13.3 °C 1014.8 hPa SO 6.4 km/h 9.5 km/h 80% 0.0 mm
05:19 16.8 °C 13.3 °C 1014.8 hPa SSO 6.4 km/h 11.1 km/h 80% 0.0 mm
05:24 16.8 °C 13.3 °C 1014.8 hPa SSO 6.4 km/h 11.1 km/h 80% 0.0 mm
05:29 16.8 °C 13.3 °C 1014.8 hPa SSO 6.9 km/h 11.1 km/h 80% 0.0 mm
05:34 16.8 °C 13.3 °C 1014.8 hPa SSO 7.6 km/h 10 km/h 80% 0.0 mm
05:39 16.7 °C 13.3 °C 1014.8 hPa SSO 7.1 km/h 10 km/h 80% 0.0 mm
05:44 16.7 °C 13.2 °C 1014.6 hPa SSO 6.4 km/h 9.3 km/h 80% 0.0 mm
05:49 16.6 °C 13.1 °C 1014.6 hPa SSO 6.4 km/h 9.5 km/h 80% 0.0 mm
05:54 16.6 °C 13.1 °C 1014.6 hPa SSO 6.4 km/h 11.1 km/h 80% 0.0 mm
05:59 16.4 °C 13 °C 1014.6 hPa SO 6.6 km/h 11.1 km/h 80% 0.0 mm
06:04 16.4 °C 13 °C 1014.6 hPa SO 6.9 km/h 9.5 km/h 80.1% 0.0 mm
06:09 16.3 °C 13.1 °C 1014.7 hPa SO 6.5 km/h 9.3 km/h 81% 0.0 mm
06:14 16.3 °C 13.1 °C 1014.7 hPa Sur 5.8 km/h 5.8 km/h 81% 0.0 mm
06:19 16.2 °C 13 °C 1014.7 hPa SSO 4.8 km/h 7.4 km/h 81% 0.0 mm
06:24 16.2 °C 12.9 °C 1014.7 hPa SSE 3.2 km/h 9.3 km/h 81% 0.0 mm
06:29 16.1 °C 12.8 °C 1014.7 hPa SSO 4.2 km/h 8.4 km/h 81% 0.0 mm
06:34 16 °C 12.7 °C 1014.7 hPa SSO 5.8 km/h 8.4 km/h 81% 0.0 mm
06:39 15.9 °C 12.8 °C 1014.9 hPa SSO 5.8 km/h 9.5 km/h 81.9% 0.0 mm
06:44 15.9 °C 12.8 °C 1014.9 hPa SSO 5.8 km/h 11.1 km/h 82% 0.0 mm
06:49 15.9 °C 12.8 °C 1014.9 hPa SSO 6.2 km/h 9.5 km/h 82% 0.0 mm
06:54 15.8 °C 12.8 °C 1014.9 hPa Sur 6.9 km/h 11.9 km/h 82% 0.0 mm
06:59 15.8 °C 12.6 °C 1014.9 hPa SSO 7.2 km/h 13 km/h 81.1% 0.0 mm
07:04 15.7 °C 12.5 °C 1014.9 hPa SSO 7.6 km/h 11.9 km/h 81% 0.0 mm
07:09 15.7 °C 12.4 °C 1015.0 hPa SSO 7.6 km/h 13 km/h 81% 0.0 mm
07:14 15.6 °C 12.4 °C 1015.0 hPa SSO 7.6 km/h 10 km/h 81.1% 0.0 mm
07:19 15.6 °C 12.5 °C 1015.0 hPa SSO 7.3 km/h 10.3 km/h 82% 0.0 mm
07:24 15.5 °C 12.4 °C 1015.0 hPa SSO 6.9 km/h 13.7 km/h 82% 0.0 mm
07:29 15.4 °C 12.4 °C 1015.0 hPa SSO 7.6 km/h 14 km/h 82% 0.0 mm
07:34 15.4 °C 12.3 °C 1015.0 hPa SSO 8.7 km/h 16.7 km/h 82% 0.0 mm
07:39 15.3 °C 12.2 °C 1015.1 hPa SSO 9.2 km/h 14.8 km/h 82% 0.0 mm
07:44 15.3 °C 12.2 °C 1015.1 hPa SSO 10 km/h 15.6 km/h 82% 0.0 mm
07:49 15.3 °C 12.2 °C 1015.1 hPa SSO 9.8 km/h 13 km/h 82% 0.0 mm
07:54 15.3 °C 12.2 °C 1015.1 hPa SSO 9.5 km/h 11.1 km/h 82% 0.0 mm
07:59 15.3 °C 12.2 °C 1015.1 hPa SSO 9 km/h 13 km/h 82% 0.0 mm
08:04 15.3 °C 12.2 °C 1015.1 hPa SSO 8.4 km/h 11.1 km/h 82% 0.0 mm
08:09 15.3 °C 12.2 °C 1015.1 hPa SSO 7.8 km/h 10.3 km/h 82% 0.0 mm
08:14 15.3 °C 12.2 °C 1015.1 hPa SO 6.9 km/h 13 km/h 81.7% 0.0 mm
08:19 15.3 °C 12.1 °C 1015.1 hPa SO 7.5 km/h 11.9 km/h 81% 0.0 mm
08:24 15.4 °C 12.1 °C 1015.1 hPa SO 8.4 km/h 11.9 km/h 81% 0.0 mm
08:29 15.4 °C 12.2 °C 1015.1 hPa SO 8.1 km/h 11.9 km/h 81% 0.0 mm
08:34 15.6 °C 12.3 °C 1015.1 hPa SO 7.6 km/h 10 km/h 81% 0.0 mm
08:39 15.7 °C 12.3 °C 1015.3 hPa SO 7.1 km/h 9.3 km/h 80.2% 0.0 mm
08:44 15.7 °C 12.3 °C 1015.3 hPa OSO 6.4 km/h 13 km/h 80% 0.0 mm
08:49 15.8 °C 12.2 °C 1015.3 hPa SO 6.6 km/h 11.1 km/h 79.1% 0.0 mm
08:54 15.9 °C 12.2 °C 1015.5 hPa SO 6.9 km/h 11.1 km/h 78.7% 0.0 mm
08:59 16.1 °C 12.3 °C 1015.5 hPa Sur 6.4 km/h 9.5 km/h 78% 0.0 mm
09:04 16.2 °C 12.3 °C 1015.5 hPa Este 5.8 km/h 7.4 km/h 78% 0.0 mm
09:09 16.2 °C 12.3 °C 1015.8 hPa Este 5 km/h 5.8 km/h 77.8% 0.0 mm
09:14 16.3 °C 12.4 °C 1015.8 hPa Este 3.9 km/h 3.7 km/h 78% 0.0 mm
09:19 16.4 °C 12.5 °C 1015.8 hPa Este 3.2 km/h 7.4 km/h 77.6% 0.0 mm
09:24 16.4 °C 12.4 °C 1015.9 hPa ESE 2.3 km/h 5.6 km/h 77.3% 0.0 mm
09:29 16.6 °C 12.6 °C 1015.9 hPa ESE 2.6 km/h 6.4 km/h 77.4% 0.0 mm
09:34 16.7 °C 12.6 °C 1015.9 hPa SE 3.2 km/h 7.4 km/h 76.5% 0.0 mm
09:39 16.8 °C 12.7 °C 1016.0 hPa SE 3.5 km/h 5.8 km/h 77% 0.0 mm
09:44 17 °C 12.8 °C 1016.0 hPa SE 3.9 km/h 5.6 km/h 76% 0.0 mm
09:49 17.3 °C 12.9 °C 1016.0 hPa SE 3.6 km/h 7.4 km/h 75.5% 0.0 mm
09:54 17.5 °C 13.1 °C 1016.2 hPa SE 3.2 km/h 5.8 km/h 75% 0.0 mm
09:59 17.8 °C 13.2 °C 1016.2 hPa ESE 3.5 km/h 7.4 km/h 74.3% 0.0 mm
10:04 17.9 °C 13.1 °C 1016.2 hPa ESE 3.9 km/h 9.3 km/h 73.2% 0.0 mm
10:09 18.1 °C 13.2 °C 1016.3 hPa ESE 4.3 km/h 10.3 km/h 73.1% 0.0 mm
10:14 18.1 °C 13.2 °C 1016.3 hPa ESE 5 km/h 11.1 km/h 73.3% 0.0 mm
10:19 18.2 °C 13.4 °C 1016.3 hPa ESE 5.3 km/h 8.4 km/h 73.7% 0.0 mm
10:24 18.4 °C 13.4 °C 1016.4 hPa Este 5.8 km/h 7.4 km/h 72.4% 0.0 mm
10:29 18.7 °C 13.4 °C 1016.4 hPa Este 5 km/h 5.8 km/h 71.1% 0.0 mm
10:34 19 °C 13.2 °C 1016.4 hPa SSE 3.9 km/h 7.4 km/h 68.9% 0.0 mm
10:39 19.3 °C 13 °C 1016.4 hPa Sur 3.6 km/h 7.4 km/h 67.1% 0.0 mm
10:44 19.4 °C 12.7 °C 1016.4 hPa Sur 3.2 km/h 8.4 km/h 64.9% 0.0 mm
10:49 19.6 °C 12.5 °C 1016.4 hPa SSO 3.8 km/h 7.6 km/h 63.8% 0.0 mm
10:54 19.7 °C 12.4 °C 1016.4 hPa SO 4.7 km/h 8.4 km/h 62.6% 0.0 mm
10:59 19.8 °C 12.3 °C 1016.4 hPa SO 4.8 km/h 7.4 km/h 61.8% 0.0 mm
11:04 20.1 °C 12.3 °C 1016.4 hPa SO 5 km/h 5.6 km/h 60.8% 0.0 mm
11:09 20.3 °C 11.7 °C 1016.5 hPa SO 4.2 km/h 5.8 km/h 57.7% 0.0 mm
11:14 20.6 °C 11.7 °C 1016.5 hPa SO 2.9 km/h 5.8 km/h 56.4% 0.0 mm
11:19 21 °C 11.9 °C 1016.5 hPa SO 2.9 km/h 6.4 km/h 56% 0.0 mm
11:24 21.4 °C 12.3 °C 1016.5 hPa NNE 2.9 km/h 9.5 km/h 56.1% 0.0 mm
11:29 21.6 °C 11.9 °C 1016.5 hPa NNO 3.6 km/h 9.3 km/h 54.2% 0.0 mm
11:34 21.6 °C 11.7 °C 1016.5 hPa NO 4.7 km/h 7.4 km/h 53.5% 0.0 mm
11:39 21.7 °C 11.7 °C 1016.5 hPa ONO 4 km/h 5.8 km/h 53% 0.0 mm
11:44 21.9 °C 11.9 °C 1016.5 hPa NO 2.9 km/h 8.4 km/h 53.2% 0.0 mm
11:49 22.2 °C 12.5 °C 1016.5 hPa NE 3.6 km/h 11.9 km/h 54.5% 0.0 mm
11:54 22.2 °C 12.6 °C 1016.5 hPa ENE 4.7 km/h 11.1 km/h 54.9% 0.0 mm
11:59 22.1 °C 12.9 °C 1016.5 hPa NNE 5.6 km/h 11.1 km/h 56% 0.0 mm
12:04 22.1 °C 12.8 °C 1016.5 hPa NE 6.9 km/h 11.9 km/h 55.7% 0.0 mm
12:09 22.1 °C 12.8 °C 1016.5 hPa NE 7.2 km/h 13 km/h 55.7% 0.0 mm
12:14 22.1 °C 12.7 °C 1016.3 hPa ENE 7.6 km/h 11.9 km/h 55.2% 0.0 mm
12:19 22.3 °C 12.8 °C 1016.3 hPa ENE 7.6 km/h 11.1 km/h 54.8% 0.0 mm
12:24 22.4 °C 12.6 °C 1016.3 hPa NE 7.6 km/h 11.1 km/h 54% 0.0 mm
12:29 22.5 °C 12.6 °C 1016.3 hPa ENE 7.3 km/h 10 km/h 53.7% 0.0 mm
12:34 22.7 °C 12.4 °C 1016.3 hPa ENE 6.9 km/h 10.3 km/h 52.1% 0.0 mm
12:39 22.8 °C 12.5 °C 1016.3 hPa Este 6.7 km/h 11.1 km/h 52% 0.0 mm
12:44 22.9 °C 12.5 °C 1016.2 hPa NNE 6.4 km/h 7.6 km/h 52% 0.0 mm
12:49 23.1 °C 12.5 °C 1016.2 hPa ENE 5.4 km/h 9.3 km/h 51.3% 0.0 mm
12:54 23.3 °C 12.6 °C 1016.2 hPa ENE 3.9 km/h 10.3 km/h 51% 0.0 mm
12:59 23.4 °C 13 °C 1015.9 hPa Este 4.7 km/h 11.1 km/h 52% 0.0 mm
13:04 23.6 °C 13.1 °C 1015.9 hPa Este 5.8 km/h 9.3 km/h 51.7% 0.0 mm
13:09 23.7 °C 12.9 °C 1015.9 hPa NE 5.3 km/h 7.4 km/h 51% 0.0 mm
13:14 23.8 °C 13 °C 1015.8 hPa NE 4.7 km/h 7.4 km/h 50.8% 0.0 mm
13:19 24 °C 13 °C 1015.8 hPa ENE 4.7 km/h 13 km/h 50.1% 0.0 mm
13:24 24.1 °C 12.7 °C 1015.8 hPa NNE 4.7 km/h 11.1 km/h 49% 0.0 mm
13:29 24.2 °C 12.4 °C 1015.7 hPa NE 4.3 km/h 6.9 km/h 47.8% 0.0 mm
13:34 24.3 °C 12.4 °C 1015.7 hPa NNE 3.9 km/h 8.4 km/h 47.4% 0.0 mm
13:39 24.4 °C 12.1 °C 1015.7 hPa NNE 4.2 km/h 9.5 km/h 46.5% 0.0 mm
13:44 24.4 °C 12.1 °C 1015.6 hPa NNE 4.7 km/h 9.3 km/h 46.2% 0.0 mm
13:49 24.6 °C 12.3 °C 1015.6 hPa NNE 4.8 km/h 10 km/h 46.3% 0.0 mm
13:54 24.7 °C 12 °C 1015.6 hPa NE 5 km/h 10 km/h 45.2% 0.0 mm
13:59 24.8 °C 11.9 °C 1015.4 hPa NNE 5 km/h 8.4 km/h 44.5% 0.0 mm
14:04 25 °C 11.9 °C 1015.4 hPa NE 5 km/h 7.6 km/h 44% 0.0 mm
14:09 25.2 °C 11.9 °C 1015.4 hPa NE 4.5 km/h 11.1 km/h 43.6% 0.0 mm
14:14 25.3 °C 12.3 °C 1015.1 hPa NNE 3.9 km/h 9.5 km/h 44.5% 0.0 mm
14:19 25.3 °C 12.4 °C 1015.1 hPa North 4.7 km/h 11.1 km/h 44.7% 0.0 mm
14:24 25.3 °C 12.5 °C 1015.1 hPa NNE 5.8 km/h 14.8 km/h 44.8% 0.0 mm
14:29 25.4 °C 12.4 °C 1014.9 hPa NNE 6.3 km/h 14.8 km/h 44.2% 0.0 mm
14:34 25.5 °C 12.2 °C 1014.9 hPa NNE 6.9 km/h 13.7 km/h 43.6% 0.0 mm
14:39 25.6 °C 12 °C 1014.9 hPa NNE 7.5 km/h 16.7 km/h 42.7% 0.0 mm
14:44 25.7 °C 11.9 °C 1014.6 hPa NNE 8.4 km/h 15.6 km/h 42.1% 0.0 mm
14:49 25.8 °C 11.5 °C 1014.6 hPa NNE 8.4 km/h 13 km/h 40.9% 0.0 mm
14:54 26 °C 11.5 °C 1014.6 hPa NE 8.4 km/h 16.7 km/h 40.5% 0.0 mm
14:59 26 °C 11.7 °C 1014.4 hPa NNE 8.5 km/h 14 km/h 41% 0.0 mm
15:04 26 °C 11.6 °C 1014.4 hPa NE 8.7 km/h 14.8 km/h 40.6% 0.0 mm
15:09 26.1 °C 11.2 °C 1014.4 hPa NE 8.7 km/h 14.8 km/h 39.4% 0.0 mm
15:14 26.2 °C 11.7 °C 1014.1 hPa NE 8.7 km/h 14.8 km/h 40.6% 0.0 mm
15:19 26.2 °C 11.8 °C 1014.1 hPa NNE 8.7 km/h 13.7 km/h 40.7% 0.0 mm
15:24 26.3 °C 11.8 °C 1014.1 hPa NE 8.7 km/h 11.1 km/h 40.5% 0.0 mm
15:29 26.3 °C 11.7 °C 1014.0 hPa NE 8.6 km/h 14.8 km/h 40.1% 0.0 mm
15:34 26.4 °C 11.8 °C 1014.0 hPa NNE 8.4 km/h 11.9 km/h 40.2% 0.0 mm
15:39 26.5 °C 11.6 °C 1014.0 hPa NNE 8.4 km/h 13 km/h 39.4% 0.0 mm
15:44 26.7 °C 11.6 °C 1013.8 hPa NNE 8.4 km/h 13 km/h 39% 0.0 mm
15:49 26.8 °C 11.5 °C 1013.8 hPa NNE 8.4 km/h 14.8 km/h 38.7% 0.0 mm
15:54 26.8 °C 11.5 °C 1013.8 hPa NE 8.4 km/h 13 km/h 38.5% 0.0 mm
15:59 27 °C 11.7 °C 1013.8 hPa NE 8.4 km/h 18.3 km/h 38.5% 0.0 mm
16:04 27.2 °C 11.7 °C 1013.8 hPa NE 8.4 km/h 18.5 km/h 38.1% 0.0 mm
16:09 27.2 °C 12.2 °C 1013.8 hPa ENE 9.1 km/h 18.5 km/h 39.3% 0.0 mm
16:14 27.2 °C 13.1 °C 1013.7 hPa ESE 10 km/h 24.5 km/h 41.7% 0.0 mm
16:19 27.1 °C 13.2 °C 1013.7 hPa ESE 11.4 km/h 24.1 km/h 42.2% 0.0 mm
16:24 27 °C 13 °C 1013.7 hPa ESE 13.7 km/h 20.9 km/h 42.1% 0.0 mm
16:29 26.9 °C 13.2 °C 1013.7 hPa ESE 13.4 km/h 22.2 km/h 42.9% 0.0 mm
16:34 26.8 °C 13.2 °C 1013.7 hPa ESE 13 km/h 18.5 km/h 43% 0.0 mm
16:39 26.8 °C 13 °C 1013.7 hPa ESE 12.3 km/h 16.7 km/h 42.6% 0.0 mm
16:44 26.9 °C 13 °C 1013.6 hPa ESE 11.1 km/h 15.6 km/h 42.2% 0.0 mm
16:49 26.9 °C 12.9 °C 1013.6 hPa ESE 10.5 km/h 14.8 km/h 41.9% 0.0 mm
16:54 26.9 °C 12.9 °C 1013.6 hPa ESE 9.5 km/h 14.8 km/h 42% 0.0 mm
16:59 26.9 °C 12.9 °C 1013.6 hPa ESE 9.1 km/h 13 km/h 42% 0.0 mm
17:04 26.9 °C 12.9 °C 1013.6 hPa Este 8.7 km/h 9.3 km/h 42% 0.0 mm
17:09 26.9 °C 13.1 °C 1013.7 hPa ESE 7.8 km/h 18.3 km/h 42.5% 0.0 mm
17:14 26.8 °C 13.4 °C 1013.7 hPa ESE 6.4 km/h 20.4 km/h 43.6% 0.0 mm
17:19 26.5 °C 13.5 °C 1013.7 hPa Este 9.1 km/h 20.4 km/h 44.6% 0.0 mm
17:24 26.3 °C 13.5 °C 1013.8 hPa Este 13 km/h 19 km/h 45% 0.0 mm
17:29 26.2 °C 13.7 °C 1013.8 hPa ENE 12 km/h 20.4 km/h 46.1% 0.0 mm
17:34 26.1 °C 14.8 °C 1013.8 hPa NE 10.3 km/h 22.5 km/h 50.1% 0.0 mm
17:39 25.6 °C 15.6 °C 1014.1 hPa NNE 10.9 km/h 27.8 km/h 54.1% 0.0 mm
17:44 25 °C 15.7 °C 1014.1 hPa NNE 11.9 km/h 22.2 km/h 56.3% 0.0 mm
17:49 24.7 °C 15.7 °C 1014.1 hPa NNE 13.3 km/h 27.8 km/h 57.2% 0.0 mm
17:54 24.4 °C 15.6 °C 1014.2 hPa NE 15.6 km/h 27.8 km/h 58% 0.0 mm
17:59 24.3 °C 15.5 °C 1014.2 hPa NE 15.3 km/h 24.1 km/h 58% 0.0 mm
18:04 24.3 °C 15.5 °C 1014.2 hPa NNE 14.8 km/h 22.2 km/h 58% 0.0 mm
18:09 24.2 °C 15.6 °C 1014.2 hPa NNE 14.3 km/h 24.5 km/h 58.8% 0.0 mm
18:14 24.1 °C 15.6 °C 1014.2 hPa NNE 13.7 km/h 20.4 km/h 59% 0.0 mm
18:19 23.9 °C 15.4 °C 1014.2 hPa NE 12.6 km/h 20.4 km/h 59% 0.0 mm
18:24 23.8 °C 15.2 °C 1014.3 hPa NE 11.1 km/h 24.5 km/h 58.6% 0.0 mm
18:29 23.7 °C 15.2 °C 1014.3 hPa NNE 12.1 km/h 24.1 km/h 59% 0.0 mm
18:34 23.6 °C 15.1 °C 1014.3 hPa NNE 13.7 km/h 20.9 km/h 59% 0.0 mm
18:39 23.4 °C 14.8 °C 1014.5 hPa NNE 13.7 km/h 22.2 km/h 58.2% 0.0 mm
18:44 23.3 °C 14.6 °C 1014.5 hPa NE 13.7 km/h 22.2 km/h 58% 0.0 mm
18:49 23.3 °C 14.6 °C 1014.5 hPa NNE 13.1 km/h 18.5 km/h 58% 0.0 mm
18:54 23.3 °C 14.5 °C 1014.5 hPa NE 12.2 km/h 22.5 km/h 57.9% 0.0 mm
18:59 23.2 °C 14.2 °C 1014.4 hPa NE 13 km/h 22.5 km/h 57% 0.0 mm
19:04 23.2 °C 14.2 °C 1014.4 hPa NE 14 km/h 18.5 km/h 56.8% 0.0 mm
19:09 23.2 °C 13.9 °C 1014.7 hPa NNE 13.1 km/h 20.4 km/h 56% 0.0 mm
19:14 23.1 °C 13.8 °C 1014.7 hPa NNE 11.9 km/h 19 km/h 55.9% 0.0 mm
19:19 23 °C 13.7 °C 1014.7 hPa NNE 11.9 km/h 18.5 km/h 55.9% 0.0 mm
19:24 22.9 °C 13.4 °C 1014.7 hPa NNE 11.9 km/h 18 km/h 55% 0.0 mm
19:29 22.8 °C 13.3 °C 1014.7 hPa NNE 11.6 km/h 17.2 km/h 55% 0.0 mm
19:34 22.8 °C 13.3 °C 1014.7 hPa NNE 11.1 km/h 16.7 km/h 55% 0.0 mm
19:39 22.7 °C 13.2 °C 1015.0 hPa NNE 10.8 km/h 16.7 km/h 55% 0.0 mm
19:44 22.7 °C 13.4 °C 1015.0 hPa NE 10.3 km/h 16.7 km/h 55.9% 0.0 mm
19:49 22.6 °C 13.2 °C 1015.0 hPa NE 10.3 km/h 22.2 km/h 55.1% 0.0 mm
19:54 22.6 °C 13.1 °C 1015.0 hPa NE 10.3 km/h 17.2 km/h 55% 0.0 mm
19:59 22.6 °C 13.1 °C 1015.0 hPa NNE 10.3 km/h 17.2 km/h 55% 0.0 mm
20:04 22.4 °C 13.1 °C 1015.0 hPa NNE 10.3 km/h 18.5 km/h 55.4% 0.0 mm
20:09 22.4 °C 13.3 °C 1015.3 hPa NNE 10.3 km/h 18.5 km/h 56.5% 0.0 mm
20:14 22.3 °C 13.5 °C 1015.3 hPa NE 10.3 km/h 17.2 km/h 57.5% 0.0 mm
20:19 22.2 °C 13.7 °C 1015.3 hPa NE 10.2 km/h 16.7 km/h 58.6% 0.0 mm
20:24 22.2 °C 13.8 °C 1015.3 hPa NE 10 km/h 18.5 km/h 59.2% 0.0 mm
20:29 22.1 °C 14 °C 1015.3 hPa NE 10 km/h 16.7 km/h 60.1% 0.0 mm
20:34 22.1 °C 14.3 °C 1015.3 hPa NE 10 km/h 14.8 km/h 61.3% 0.0 mm
20:39 21.9 °C 14.4 °C 1015.4 hPa NE 9.8 km/h 14.8 km/h 62.1% 0.0 mm
20:44 21.8 °C 14.5 °C 1015.4 hPa NE 9.5 km/h 14.8 km/h 63% 0.0 mm
20:49 21.8 °C 14.6 °C 1015.4 hPa NNE 9.7 km/h 14.8 km/h 63.7% 0.0 mm
20:54 21.7 °C 14.8 °C 1015.4 hPa NNE 10 km/h 14 km/h 64.8% 0.0 mm
20:59 21.6 °C 15 °C 1015.4 hPa NNE 9.4 km/h 14.8 km/h 65.8% 0.0 mm
21:04 21.5 °C 14.9 °C 1015.4 hPa NNE 8.7 km/h 13 km/h 66% 0.0 mm
21:09 21.4 °C 14.9 °C 1015.5 hPa NNE 8.6 km/h 14.8 km/h 66.5% 0.0 mm
21:14 21.3 °C 15 °C 1015.5 hPa NNE 8.4 km/h 13 km/h 67% 0.0 mm
21:19 21.3 °C 15.1 °C 1015.5 hPa NNE 8 km/h 13 km/h 67.8% 0.0 mm
21:24 21.3 °C 15.3 °C 1015.6 hPa NNE 7.6 km/h 13 km/h 68.6% 0.0 mm
21:29 21.2 °C 15.4 °C 1015.6 hPa NNE 7.9 km/h 13 km/h 69.6% 0.0 mm
21:34 21.2 °C 15.5 °C 1015.6 hPa NNE 8.4 km/h 14.8 km/h 70.3% 0.0 mm
21:39 21.1 °C 15.6 °C 1015.6 hPa NNE 8.5 km/h 13 km/h 71% 0.0 mm
21:44 21 °C 15.8 °C 1015.6 hPa NNE 8.7 km/h 15.6 km/h 71.8% 0.0 mm
21:49 20.9 °C 15.8 °C 1015.6 hPa NNE 9.3 km/h 15.6 km/h 72.5% 0.0 mm
21:54 20.9 °C 15.9 °C 1015.7 hPa NE 10.3 km/h 16.7 km/h 73% 0.0 mm
21:59 20.9 °C 15.9 °C 1015.7 hPa NE 9.9 km/h 20.4 km/h 73.4% 0.0 mm
22:04 20.8 °C 16 °C 1015.7 hPa NE 9.5 km/h 16.7 km/h 74% 0.0 mm
22:09 20.8 °C 16 °C 1015.9 hPa NNE 9.8 km/h 14.8 km/h 74% 0.0 mm
22:14 20.8 °C 16 °C 1015.9 hPa NNE 10.3 km/h 14 km/h 74.1% 0.0 mm
22:19 20.8 °C 16.2 °C 1015.9 hPa NNE 10.2 km/h 14.8 km/h 75% 0.0 mm
22:24 20.8 °C 16.2 °C 1016.0 hPa NE 10 km/h 15.6 km/h 75% 0.0 mm
22:29 20.7 °C 16.1 °C 1016.0 hPa NNE 10 km/h 14.8 km/h 75% 0.0 mm
22:34 20.7 °C 16.2 °C 1016.0 hPa NNE 10 km/h 14.8 km/h 75.3% 0.0 mm
22:39 20.7 °C 16.3 °C 1016.0 hPa NNE 9.5 km/h 13 km/h 76% 0.0 mm
22:44 20.7 °C 16.3 °C 1015.9 hPa NE 8.7 km/h 14.8 km/h 76% 0.0 mm
22:49 20.7 °C 16.3 °C 1015.9 hPa NE 9 km/h 16.7 km/h 75.7% 0.0 mm
22:54 20.7 °C 16.1 °C 1015.9 hPa NE 9.5 km/h 16.1 km/h 75% 0.0 mm
22:59 20.8 °C 16.2 °C 1015.9 hPa NE 9.7 km/h 16.7 km/h 75% 0.0 mm
23:04 20.8 °C 16.2 °C 1015.9 hPa NE 10 km/h 16.7 km/h 75% 0.0 mm
23:09 20.8 °C 16.2 °C 1015.9 hPa NE 10 km/h 13 km/h 75% 0.0 mm
23:14 20.7 °C 16.1 °C 1015.9 hPa NE 10 km/h 14.8 km/h 75% 0.0 mm
23:19 20.7 °C 16.2 °C 1015.9 hPa NE 9.5 km/h 14.8 km/h 75.2% 0.0 mm
23:24 20.7 °C 16.3 °C 1016.0 hPa NE 8.7 km/h 11.1 km/h 76% 0.0 mm
23:29 20.7 °C 16.3 °C 1016.0 hPa NE 8 km/h 11.1 km/h 76% 0.0 mm
23:34 20.7 °C 16.3 °C 1016.0 hPa NE 6.9 km/h 13 km/h 76% 0.0 mm
23:39 20.7 °C 16.3 °C 1016.0 hPa NE 7.6 km/h 11.1 km/h 76% 0.0 mm
23:44 20.6 °C 16.4 °C 1015.9 hPa NE 8.7 km/h 11.1 km/h 76.7% 0.0 mm
23:49 20.6 °C 16.4 °C 1015.9 hPa NNE 8.2 km/h 11.9 km/h 77% 0.0 mm
23:54 20.6 °C 16.4 °C 1015.9 hPa NNE 7.6 km/h 13 km/h 77% 0.0 mm
23:59 20.6 °C 16.4 °C 1015.9 hPa NE 7.9 km/h 13 km/h 77% 0.0 mm
Murcia-Puente Tocinos, Espa?a
Compliments of Weather Underground - 3 mb

La estación de MeteoMurcia.com, publica sus datos en los siguientes proyectos:

Weather Underground PWS IMURCIAP2 Meteoclimatic www.awekas.at

W3Counter
Web Analytics